createdAt,value
2023-03-17T00:03:25.811Z,9.72
2023-03-17T00:08:28.824Z,8.88
2023-03-17T00:13:33.245Z,9.34
2023-03-17T00:18:35.411Z,8.97
2023-03-17T00:23:36.900Z,9.44
2023-03-17T00:28:38.595Z,9.14
2023-03-17T00:33:40.485Z,9.35
2023-03-17T00:38:41.967Z,8.89
2023-03-17T00:43:43.436Z,9.87
2023-03-17T00:48:45.024Z,9.75
2023-03-17T00:53:46.654Z,10.14
2023-03-17T00:58:48.481Z,9.92
2023-03-17T01:03:49.952Z,9.60
2023-03-17T01:08:52.242Z,9.87
2023-03-17T01:13:53.761Z,9.90
2023-03-17T01:18:55.290Z,9.93
2023-03-17T01:23:56.763Z,9.79
2023-03-17T01:28:58.892Z,9.68
2023-03-17T01:34:00.351Z,9.71
2023-03-17T01:39:01.897Z,9.42
2023-03-17T01:44:04.042Z,9.88
2023-03-17T01:49:27.228Z,9.56
2023-03-17T01:54:32.748Z,9.65
2023-03-17T01:59:36.473Z,9.67
2023-03-17T02:04:39.220Z,9.88
2023-03-17T02:09:40.756Z,9.94
2023-03-17T02:14:42.248Z,9.26
2023-03-17T02:19:43.775Z,9.67
2023-03-17T02:24:53.085Z,9.89
2023-03-17T02:29:54.563Z,9.84
2023-03-17T02:34:56.048Z,10.14
2023-03-17T02:39:57.726Z,9.49
2023-03-17T02:44:59.258Z,10.03
2023-03-17T02:50:00.725Z,10.08
2023-03-17T02:55:02.200Z,9.49
2023-03-17T03:00:03.927Z,9.31
2023-03-17T03:05:06.011Z,8.82
2023-03-17T03:10:07.737Z,9.50
2023-03-17T03:15:09.704Z,9.43
2023-03-17T03:20:12.885Z,9.53
2023-03-17T03:25:14.195Z,9.43
2023-03-17T03:30:15.670Z,9.98
2023-03-17T03:35:17.141Z,9.61
2023-03-17T03:40:18.670Z,9.93
2023-03-17T03:45:20.152Z,9.46
2023-03-17T03:50:21.618Z,9.92
2023-03-17T03:55:23.110Z,10.40
2023-03-17T04:00:24.617Z,10.24
2023-03-17T04:05:26.070Z,9.86
2023-03-17T04:10:27.517Z,9.78
2023-03-17T04:15:29.207Z,9.77
2023-03-17T04:20:30.827Z,10.10
2023-03-17T04:25:32.632Z,10.63
2023-03-17T04:30:34.468Z,10.47
2023-03-17T04:35:36.234Z,10.43
2023-03-17T04:40:37.716Z,10.45
2023-03-17T04:45:39.207Z,10.29
2023-03-17T04:50:42.269Z,10.42
2023-03-17T04:55:43.927Z,9.68
2023-03-17T05:00:45.809Z,10.39
2023-03-17T05:05:47.499Z,10.34
2023-03-17T05:10:48.976Z,10.08
2023-03-17T05:15:51.704Z,10.16
2023-03-17T05:20:53.229Z,10.08
2023-03-17T05:25:54.700Z,10.39
2023-03-17T05:30:56.624Z,10.69
2023-03-17T05:35:58.149Z,10.39
2023-03-17T05:40:59.654Z,10.48
2023-03-17T05:46:01.137Z,10.44
2023-03-17T05:51:02.641Z,9.96
2023-03-17T05:56:04.138Z,9.95
2023-03-17T06:01:05.931Z,10.09
2023-03-17T06:06:07.388Z,9.98
2023-03-17T06:11:09.877Z,9.95
2023-03-17T06:16:11.411Z,10.70
2023-03-17T06:21:13.395Z,10.69
2023-03-17T06:26:14.862Z,10.82
2023-03-17T06:31:16.385Z,10.63
2023-03-17T06:36:18.028Z,10.50
2023-03-17T06:41:19.759Z,10.97
2023-03-17T06:46:21.557Z,10.83
2023-03-17T06:51:23.072Z,11.04
2023-03-17T06:56:30.057Z,10.51
2023-03-17T07:01:32.224Z,10.84
2023-03-17T07:06:33.726Z,10.72
2023-03-17T07:11:35.242Z,10.54
2023-03-17T07:16:37.498Z,10.88
2023-03-17T07:21:39.053Z,10.47
2023-03-17T07:26:40.524Z,11.36
2023-03-17T07:31:43.177Z,11.53
2023-03-17T07:36:44.700Z,11.42
2023-03-17T07:41:48.325Z,11.44
2023-03-17T07:46:50.475Z,10.94
2023-03-17T07:51:52.040Z,10.95
2023-03-17T07:56:53.532Z,11.76
2023-03-17T08:01:55.167Z,11.77
2023-03-17T08:06:57.376Z,11.40
2023-03-17T08:11:59.000Z,12.07
2023-03-17T08:17:00.537Z,11.72
2023-03-17T08:22:02.030Z,12.26
2023-03-17T08:27:03.989Z,12.34
2023-03-17T08:32:05.807Z,11.98
2023-03-17T08:37:10.050Z,12.34
2023-03-17T08:42:12.711Z,12.78
2023-03-17T08:47:14.196Z,12.66
2023-03-17T08:52:16.257Z,12.76
2023-03-17T08:57:17.961Z,12.48
2023-03-17T09:02:19.453Z,11.81
2023-03-17T09:07:21.684Z,12.46
2023-03-17T09:12:23.171Z,12.90
2023-03-17T09:17:24.636Z,12.99
2023-03-17T09:22:26.104Z,13.38
2023-03-17T09:27:27.564Z,12.68
2023-03-17T09:32:29.058Z,11.69
2023-03-17T09:37:31.037Z,11.53
2023-03-17T09:42:56.023Z,11.96
2023-03-17T09:48:27.253Z,12.40
2023-03-17T09:53:59.939Z,12.31
2023-03-17T09:59:45.829Z,12.97
2023-03-17T10:04:48.653Z,12.46
2023-03-17T10:09:58.188Z,12.86
2023-03-17T10:15:06.718Z,12.83
2023-03-17T10:20:25.972Z,13.05
2023-03-17T10:25:32.624Z,12.88
2023-03-17T10:30:34.482Z,13.24
2023-03-17T10:35:37.446Z,13.50
2023-03-17T10:40:38.823Z,13.27
2023-03-17T10:45:46.520Z,13.79
2023-03-17T10:50:49.588Z,13.68
2023-03-17T10:55:52.067Z,13.87
2023-03-17T11:00:58.300Z,13.84
2023-03-17T11:06:05.620Z,13.85
2023-03-17T11:11:23.064Z,14.00
2023-03-17T11:16:24.677Z,14.23
2023-03-17T11:21:46.653Z,14.35
2023-03-17T11:27:01.159Z,14.08
2023-03-17T11:32:23.937Z,14.64
2023-03-17T11:37:31.421Z,14.90
2023-03-17T11:42:45.759Z,14.79
2023-03-17T11:48:13.937Z,14.90
2023-03-17T11:53:33.773Z,15.13
2023-03-17T11:58:43.995Z,15.43
2023-03-17T12:03:52.809Z,15.43
2023-03-17T12:09:07.742Z,15.49
2023-03-17T12:14:35.559Z,15.73
2023-03-17T12:19:47.085Z,16.13
2023-03-17T12:25:17.974Z,16.14
2023-03-17T12:30:29.139Z,16.08
2023-03-17T12:35:34.025Z,16.36
2023-03-17T12:40:49.437Z,16.38
2023-03-17T12:46:18.677Z,16.71
2023-03-17T12:51:41.111Z,17.11
2023-03-17T12:56:46.134Z,17.39
2023-03-17T13:02:15.543Z,17.74
2023-03-17T13:07:23.186Z,17.85
2023-03-17T13:12:39.781Z,17.97
2023-03-17T13:17:41.343Z,17.88
2023-03-17T13:23:00.786Z,17.89
2023-03-17T13:28:15.068Z,17.98
2023-03-17T13:33:24.003Z,18.07
2023-03-17T13:38:34.475Z,17.86
2023-03-17T13:43:46.224Z,18.06
2023-03-17T13:48:47.975Z,17.86
2023-03-17T13:53:57.290Z,17.71
2023-03-17T13:59:01.330Z,17.84
2023-03-17T14:04:03.365Z,17.46
2023-03-17T14:09:18.375Z,17.55
2023-03-17T14:14:36.455Z,17.30
2023-03-17T14:19:41.377Z,17.73
2023-03-17T14:24:42.924Z,17.66
2023-03-17T14:29:44.383Z,17.72
2023-03-17T14:34:54.340Z,17.95
2023-03-17T14:39:57.456Z,17.62
2023-03-17T14:45:07.299Z,16.70
2023-03-17T14:50:23.234Z,17.14
2023-03-17T14:55:31.751Z,17.48
2023-03-17T15:00:36.416Z,17.43
2023-03-17T15:05:39.765Z,17.61
2023-03-17T15:10:42.341Z,17.76
2023-03-17T15:15:44.587Z,17.24
2023-03-17T15:20:46.136Z,17.57
2023-03-17T15:25:55.645Z,17.71
2023-03-17T15:31:05.277Z,17.88
2023-03-17T15:36:07.604Z,17.73
2023-03-17T15:41:09.150Z,17.73
2023-03-17T15:46:19.445Z,17.69
2023-03-17T15:51:21.084Z,17.64
2023-03-17T15:56:22.746Z,17.56
2023-03-17T16:01:26.550Z,17.53
2023-03-17T16:06:29.281Z,17.43
2023-03-17T16:11:30.996Z,17.34
2023-03-17T16:16:36.484Z,17.34
2023-03-17T16:21:37.968Z,17.25
2023-03-17T16:26:39.482Z,17.30
2023-03-17T16:31:41.003Z,17.31
2023-03-17T16:36:43.856Z,17.28
2023-03-17T16:41:47.049Z,16.83
2023-03-17T16:46:48.550Z,17.02
2023-03-17T16:51:50.702Z,17.03
2023-03-17T16:56:52.434Z,16.99
2023-03-17T17:01:54.826Z,16.75
2023-03-17T17:06:56.640Z,16.75
2023-03-17T17:11:58.480Z,16.74
2023-03-17T17:17:00.508Z,16.74
2023-03-17T17:22:02.003Z,16.67
2023-03-17T17:27:03.543Z,16.33
2023-03-17T17:32:05.310Z,16.10
2023-03-17T17:37:08.832Z,16.10
2023-03-17T17:42:11.145Z,16.09
2023-03-17T17:47:12.745Z,16.19
2023-03-17T17:52:14.193Z,16.27
2023-03-17T17:57:16.864Z,16.19
2023-03-17T18:02:18.329Z,16.23
2023-03-17T18:07:19.789Z,16.08
2023-03-17T18:12:21.246Z,16.16
2023-03-17T18:17:22.899Z,16.24
2023-03-17T18:22:24.417Z,16.10
2023-03-17T18:27:26.011Z,16.07
2023-03-17T18:32:27.781Z,16.20
2023-03-17T18:37:29.295Z,16.23
2023-03-17T18:42:31.574Z,16.21
2023-03-17T18:47:33.425Z,16.22
2023-03-17T18:52:35.885Z,16.31
2023-03-17T18:57:37.350Z,16.29
2023-03-17T19:02:38.880Z,16.23
2023-03-17T19:07:40.993Z,16.22
2023-03-17T19:12:42.628Z,16.16
2023-03-17T19:17:44.133Z,16.14
2023-03-17T19:22:46.109Z,16.10
2023-03-17T19:27:47.588Z,16.01
2023-03-17T19:32:49.066Z,15.97
2023-03-17T19:37:51.528Z,15.96
2023-03-17T19:42:53.054Z,15.94
2023-03-17T19:47:54.594Z,15.86
2023-03-17T19:52:56.169Z,15.74
2023-03-17T19:57:57.646Z,15.77
2023-03-17T20:02:59.102Z,15.86
2023-03-17T20:08:00.693Z,16.01
2023-03-17T20:13:02.148Z,15.89
2023-03-17T20:18:03.860Z,15.98
2023-03-17T20:23:05.325Z,15.76
2023-03-17T20:28:06.811Z,15.75
2023-03-17T20:33:09.688Z,15.60
2023-03-17T20:38:11.662Z,15.56
2023-03-17T20:43:13.160Z,15.48
2023-03-17T20:48:14.626Z,14.86
2023-03-17T20:53:17.183Z,14.81
2023-03-17T20:58:19.861Z,15.11
2023-03-17T21:03:21.491Z,15.14
2023-03-17T21:08:23.400Z,15.13
2023-03-17T21:13:24.872Z,15.17
2023-03-17T21:18:26.476Z,15.04
2023-03-17T21:23:28.455Z,14.96
2023-03-17T21:28:31.239Z,15.03
2023-03-17T21:33:33.583Z,15.05
2023-03-17T21:38:35.694Z,15.11
2023-03-17T21:43:37.159Z,15.14
2023-03-17T21:48:38.807Z,14.88
2023-03-17T21:53:40.302Z,14.90
2023-03-17T21:58:42.047Z,14.68
2023-03-17T22:03:44.524Z,14.32
2023-03-17T22:08:46.481Z,14.63
2023-03-17T22:13:48.086Z,14.88
2023-03-17T22:18:49.606Z,14.87
2023-03-17T22:23:51.146Z,14.68
2023-03-17T22:28:52.863Z,14.56
2023-03-17T22:33:56.181Z,14.56
2023-03-17T22:38:58.372Z,14.55
2023-03-17T22:43:59.937Z,14.05
2023-03-17T22:49:01.511Z,14.43
2023-03-17T22:54:03.370Z,14.48
2023-03-17T22:59:04.861Z,14.72
2023-03-17T23:04:06.833Z,14.47
2023-03-17T23:09:09.392Z,14.40
2023-03-17T23:14:11.468Z,14.51
2023-03-17T23:19:13.030Z,14.56
2023-03-17T23:24:14.498Z,14.24
2023-03-17T23:29:16.156Z,14.51
2023-03-17T23:34:18.497Z,14.58
2023-03-17T23:39:20.067Z,14.60
2023-03-17T23:44:22.572Z,14.41
2023-03-17T23:49:24.315Z,14.58
2023-03-17T23:54:25.900Z,14.78
2023-03-17T23:59:27.386Z,14.72
